Terminal Aerodrome Forecast
Issued by NWS

Home | Current Version | Previous Version | Text Only | Print | Product List | Glossary On
Versions: 1 2 3 4 5 6 7 8 9 10 11 12 13 14 15 16 17 18 19 20 21 22 23 24
000
FTUS46 KSEW 211700
TAFHQM
TAF
KHQM 211723Z 2118/2218 14010KT P6SM FEW035 SCT070 BKN120
      TEMPO 2118/2122 4SM -SHRA BR BKN035 OVC070
     FM212200 15014G23KT P6SM -RA BKN035 OVC070
     FM220300 16018G28KT 5SM RA OVC030
     FM220700 17022G35KT 4SM RA BR OVC020=

USA.gov is the U.S. government's official web portal to all federal, state and local government web resources and services.